Time;durP1;ratioP1;P1;durP2;ratioP2;P2;SDS_P1;SDS_P2;PMS_P1;PMS_P2;Temp;Humidity;BMP_temperature;BMP_pressure;BME280_temperature;BME280_humidity;BME280_pressure;Samples;Min_cycle;Max_cycle;Signal;HPM_P1;HPM_P2
2021/05/05 07:58:11;;;;;;;4.30;1.20;;;;;;;9.02;62.60;98125.81;5130729;27;20360;-80
2021/05/05 08:00:38;;;;;;;7.30;1.35;;;;;;;8.79;60.20;98134.22;5130858;28;20047;-80
2021/05/05 08:03:06;;;;;;;6.72;1.65;;;;;;;8.73;61.77;98133.16;5129412;28;20559;-80
2021/05/05 08:05:35;;;;;;;5.28;1.15;;;;;;;8.81;58.65;98145.72;5127138;27;20051;-80
2021/05/05 08:08:03;;;;;;;5.47;1.52;;;;;;;9.09;57.56;98131.25;5128329;27;20051;-81
2021/05/05 08:13:40;;;;;;;3.78;1.58;;;;;;;9.16;55.37;98124.81;5100878;27;20050;-81
2021/05/05 08:16:09;;;;;;;3.28;1.30;;;;;;;9.09;55.09;98115.81;5127375;27;20132;-80
2021/05/05 08:18:42;;;;;;;8.30;1.58;;;;;;;8.96;59.39;98124.72;5127320;27;20055;-80
2021/05/05 08:21:10;;;;;;;4.18;1.10;;;;;;;8.53;58.13;98148.41;5127997;27;20039;-81
2021/05/05 08:23:37;;;;;;;6.80;1.50;;;;;;;8.15;59.70;98155.78;5127256;27;20452;-80
2021/05/05 08:26:07;;;;;;;8.52;1.80;;;;;;;8.00;59.00;98146.88;5124340;28;20047;-80
2021/05/05 08:28:34;;;;;;;5.47;1.25;;;;;;;8.68;56.01;98146.44;5124470;27;20047;-79
2021/05/05 08:31:05;;;;;;;7.13;1.52;;;;;;;8.53;57.12;98153.84;5127250;27;20048;-80
2021/05/05 08:33:32;;;;;;;4.07;1.63;;;;;;;8.80;58.23;98144.03;5128274;27;20075;-80
2021/05/05 08:35:59;;;;;;;9.30;1.98;;;;;;;8.94;54.50;98159.34;5126853;27;20058;-80
2021/05/05 08:38:25;;;;;;;5.82;1.08;;;;;;;8.95;54.03;98147.44;5127538;27;20039;-79
2021/05/05 08:40:52;;;;;;;4.40;1.65;;;;;;;9.32;55.18;98149.91;5128059;27;20398;-79
2021/05/05 08:43:18;;;;;;;3.63;1.38;;;;;;;9.47;53.96;98150.63;5114253;28;20052;-79
2021/05/05 08:45:45;;;;;;;9.25;1.35;;;;;;;9.51;51.38;98143.75;5127920;28;20050;-80
2021/05/05 08:48:12;;;;;;;7.70;1.30;;;;;;;9.83;50.73;98132.34;5126964;28;20251;-81
2021/05/05 08:50:41;;;;;;;7.03;1.58;;;;;;;10.15;51.37;98147.03;5127181;27;20047;-80
2021/05/05 08:53:08;;;;;;;5.45;1.45;;;;;;;9.97;49.23;98135.97;5125170;27;20051;-80
2021/05/05 08:55:35;;;;;;;6.28;1.40;;;;;;;10.25;51.09;98139.34;5127006;27;20300;-81
2021/05/05 08:58:02;;;;;;;2.70;1.67;;;;;;;10.39;50.18;98118.47;5125496;27;20138;-81
2021/05/05 09:00:33;;;;;;;5.35;1.50;;;;;;;10.16;51.08;98124.28;5112519;27;20567;-78
2021/05/05 09:03:05;;;;;;;9.32;1.02;;;;;;;9.39;50.98;98123.66;5122223;27;20059;-80
2021/05/05 09:05:50;;;;;;;11.02;1.60;;;;;;;9.21;52.98;98141.34;5116954;28;20051;-79
2021/05/05 09:08:17;;;;;;;5.03;1.30;;;;;;;8.73;53.19;98160.25;5118857;27;20051;-80
2021/05/05 09:10:59;;;;;;;9.05;1.40;;;;;;;8.80;53.35;98163.00;5109317;28;20109;-80
2021/05/05 09:13:54;;;;;;;4.47;1.20;;;;;;;9.48;53.33;98146.03;5092225;28;20129;-80
2021/05/05 09:16:26;;;;;;;1.10;0.95;;;;;;;9.39;52.07;98150.78;5098695;28;20388;-80
2021/05/05 09:18:54;;;;;;;4.10;1.17;;;;;;;9.80;54.10;98157.19;5093777;28;20048;-80
2021/05/05 09:21:26;;;;;;;6.47;2.15;;;;;;;9.74;51.64;98148.84;5093685;28;20040;-80
2021/05/05 09:23:53;;;;;;;4.47;1.17;;;;;;;9.99;51.71;98133.88;5111202;28;20521;-80
2021/05/05 09:26:35;;;;;;;5.60;1.30;;;;;;;9.97;49.37;98149.53;5103603;28;20109;-81
2021/05/05 09:29:01;;;;;;;2.33;1.00;;;;;;;10.00;52.00;98149.13;5096510;28;20052;-80
2021/05/05 09:31:33;;;;;;;5.60;2.25;;;;;;;9.67;51.45;98158.00;5102066;28;20455;-80
2021/05/05 09:34:00;;;;;;;4.03;1.33;;;;;;;9.43;50.98;98151.25;5092348;28;20130;-80
2021/05/05 09:36:28;;;;;;;6.03;1.10;;;;;;;9.35;53.12;98163.09;5092385;28;20072;-80
2021/05/05 09:38:59;;;;;;;4.47;1.35;;;;;;;9.56;52.66;98143.16;5092177;28;20410;-80
2021/05/05 09:41:28;;;;;;;9.48;1.42;;;;;;;9.66;49.95;98148.19;5092949;28;20082;-81
2021/05/05 09:44:00;;;;;;;7.38;1.20;;;;;;;10.01;47.45;98150.78;5092305;28;20575;-80
2021/05/05 09:46:50;;;;;;;1.50;0.90;;;;;;;9.73;47.48;98144.44;5091833;28;20087;-81
2021/05/05 09:49:32;;;;;;;7.30;1.13;;;;;;;10.13;47.55;98151.81;5087359;28;20055;-80
2021/05/05 09:52:29;;;;;;;4.03;1.00;;;;;;;10.15;45.79;98143.50;5092371;28;20048;-80
2021/05/05 09:54:58;;;;;;;6.43;1.60;;;;;;;10.47;47.06;98162.78;5093111;28;20062;-80
2021/05/05 09:57:27;;;;;;;5.18;1.48;;;;;;;10.51;46.60;98139.56;5093928;28;20097;-80
2021/05/05 09:59:55;;;;;;;3.47;1.20;;;;;;;11.05;45.01;98149.34;5111653;28;20048;-80
2021/05/05 10:02:22;;;;;;;7.05;1.40;;;;;;;11.09;45.39;98141.56;5105142;28;20048;-82
2021/05/05 10:05:03;;;;;;;3.28;1.00;;;;;;;11.15;44.10;98138.84;5091593;28;20487;-80
2021/05/05 10:07:52;;;;;;;5.03;1.13;;;;;;;11.15;42.67;98147.00;5098520;28;20058;-82
2021/05/05 10:10:48;;;;;;;2.70;0.80;;;;;;;11.32;40.80;98141.94;5111501;28;20418;-80
2021/05/05 10:13:21;;;;;;;5.47;1.25;;;;;;;11.14;42.44;98150.78;5063272;28;20074;-80
2021/05/05 10:15:47;;;;;;;2.58;1.23;;;;;;;10.83;45.65;98148.75;5094203;28;20059;-80
2021/05/05 10:18:15;;;;;;;2.42;0.90;;;;;;;10.35;42.54;98157.94;5108089;28;20054;-79
2021/05/05 10:20:47;;;;;;;5.25;1.70;;;;;;;10.48;44.57;98169.88;5092884;28;20148;-80
2021/05/05 10:23:16;;;;;;;3.95;1.13;;;;;;;10.96;45.76;98165.03;5100690;28;20079;-79
2021/05/05 10:25:45;;;;;;;6.95;1.25;;;;;;;11.30;43.16;98152.16;5092750;28;20126;-79
2021/05/05 10:28:11;;;;;;;6.15;1.02;;;;;;;11.07;42.19;98168.97;5097004;28;20051;-79
2021/05/05 10:30:41;;;;;;;5.45;1.17;;;;;;;10.62;43.76;98182.41;5097614;28;20411;-80
2021/05/05 10:33:13;;;;;;;2.22;1.25;;;;;;;11.01;44.82;98183.44;5093006;28;20083;-80
2021/05/05 10:35:39;;;;;;;3.40;0.93;;;;;;;11.14;43.88;98194.28;5104570;28;20063;-80
2021/05/05 10:38:07;;;;;;;3.33;1.48;;;;;;;11.66;42.93;98190.78;5111223;28;20048;-80
2021/05/05 10:40:36;;;;;;;3.72;1.00;;;;;;;11.06;41.63;98218.16;5098457;28;20093;-80
2021/05/05 10:43:04;;;;;;;1.20;0.60;;;;;;;10.03;50.34;98285.31;5092865;28;20143;-81
2021/05/05 10:45:33;;;;;;;3.40;0.43;;;;;;;8.01;58.91;98326.34;5091317;28;20055;-84
2021/05/05 10:48:06;;;;;;;0.95;0.63;;;;;;;6.76;65.62;98358.38;5108377;28;20494;-80
2021/05/05 10:50:53;;;;;;;0.45;0.45;;;;;;;6.48;73.34;98390.47;5103788;28;20055;-79
2021/05/05 10:53:23;;;;;;;3.03;0.70;;;;;;;5.85;75.67;98428.13;5092193;28;20059;-79
2021/05/05 10:55:55;;;;;;;1.05;0.60;;;;;;;4.95;76.80;98407.50;5091600;28;20073;-83
2021/05/05 10:58:27;;;;;;;2.58;0.65;;;;;;;4.87;80.01;98437.97;5097092;28;20039;-79
2021/05/05 11:00:56;;;;;;;0.60;0.60;;;;;;;4.84;78.21;98427.53;5107644;28;20051;-80
2021/05/05 11:04:14;;;;;;;2.33;0.82;;;;;;;4.76;79.87;98403.28;5091430;28;20128;-80
2021/05/05 11:06:42;;;;;;;1.15;1.05;;;;;;;4.97;79.36;98381.25;5067384;28;20040;-80
2021/05/05 11:09:45;;;;;;;1.48;0.95;;;;;;;5.19;77.35;98377.03;5091662;28;20101;-80
2021/05/05 11:12:40;;;;;;;3.58;1.10;;;;;;;5.49;79.86;98396.19;5060816;28;20051;-79
2021/05/05 11:15:09;;;;;;;1.35;0.82;;;;;;;5.82;77.97;98393.41;5090160;28;20150;-80
2021/05/05 11:17:35;;;;;;;2.08;0.93;;;;;;;5.94;78.21;98391.19;5090564;28;20051;-80
2021/05/05 11:20:32;;;;;;;1.35;0.90;;;;;;;6.10;75.67;98366.88;5090670;28;20142;-80
2021/05/05 11:23:01;;;;;;;1.08;0.90;;;;;;;6.15;77.03;98383.38;5091155;28;20055;-80
2021/05/05 11:25:30;;;;;;;1.60;0.90;;;;;;;6.15;78.41;98401.44;5089814;28;20052;-80
2021/05/05 11:27:59;;;;;;;1.27;0.95;;;;;;;6.26;76.70;98392.94;5090513;28;20043;-79
2021/05/05 11:30:49;;;;;;;4.30;1.10;;;;;;;6.20;77.06;98375.59;5101510;28;20101;-79
2021/05/05 11:33:30;;;;;;;2.00;1.05;;;;;;;6.35;75.79;98375.69;5091201;28;20058;-81
2021/05/05 11:35:58;;;;;;;1.75;1.05;;;;;;;6.68;77.36;98375.47;5090921;28;20112;-80
2021/05/05 11:38:32;;;;;;;1.73;1.40;;;;;;;7.11;76.15;98376.88;5090528;28;20047;-80
2021/05/05 11:41:00;;;;;;;2.42;1.42;;;;;;;7.52;74.82;98373.78;5091892;28;20112;-79
2021/05/05 11:43:29;;;;;;;3.03;1.10;;;;;;;7.86;74.94;98388.59;5093937;28;20044;-79
2021/05/05 11:45:57;;;;;;;2.75;1.67;;;;;;;8.33;75.68;98390.09;5091107;28;20503;-80
2021/05/05 11:48:26;;;;;;;1.95;1.20;;;;;;;8.72;71.59;98379.94;5101349;28;20491;-80
2021/05/05 11:50:53;;;;;;;2.83;1.17;;;;;;;8.99;69.56;98389.19;5091452;28;20048;-79
2021/05/05 11:53:40;;;;;;;3.72;1.02;;;;;;;9.24;67.16;98392.31;5100825;28;20047;-80
2021/05/05 11:56:47;;;;;;;2.03;1.30;;;;;;;8.70;69.18;98390.94;5090168;28;20048;-80
2021/05/05 11:59:24;;;;;;;4.53;1.20;;;;;;;8.64;70.15;98384.44;5078870;28;20048;-80
2021/05/05 12:01:51;;;;;;;2.45;1.10;;;;;;;8.44;69.80;98378.78;5090753;28;20560;-78
2021/05/05 12:04:21;;;;;;;7.25;1.50;;;;;;;8.39;69.84;98377.66;5104336;28;20044;-79
2021/05/05 12:07:02;;;;;;;1.50;1.20;;;;;;;8.49;69.17;98375.50;5095465;28;20048;-79
2021/05/05 12:09:46;;;;;;;3.25;1.58;;;;;;;8.76;66.16;98356.81;5095214;28;20052;-80
2021/05/05 12:12:26;;;;;;;3.60;1.52;;;;;;;8.99;65.94;98353.94;5102758;28;20143;-80
2021/05/05 12:15:06;;;;;;;2.63;1.40;;;;;;;9.00;62.31;98352.88;5095254;28;20083;-81
2021/05/05 12:17:36;;;;;;;2.80;1.23;;;;;;;9.03;63.96;98347.91;5109388;28;20043;-80
2021/05/05 12:20:28;;;;;;;3.40;1.55;;;;;;;9.15;60.28;98350.94;5095480;28;20123;-81
2021/05/05 12:26:00;;;;;;;2.80;1.00;;;;;;;9.65;61.45;98369.91;5101612;28;20052;-81
2021/05/05 12:31:42;;;;;;;3.47;1.20;;;;;;;9.79;58.93;98359.94;5106855;27;20047;-81
2021/05/05 12:34:11;;;;;;;3.67;1.10;;;;;;;9.88;59.55;98363.34;5101232;28;20111;-80
2021/05/05 12:36:51;;;;;;;1.15;0.85;;;;;;;9.91;56.89;98373.81;5091119;28;20209;-81
2021/05/05 12:42:20;;;;;;;3.00;1.75;;;;;;;9.64;55.48;98387.19;5090950;28;20047;-81
2021/05/05 12:44:46;;;;;;;2.13;0.90;;;;;;;9.38;56.26;98401.41;5098583;28;20056;-81
2021/05/05 12:47:15;;;;;;;1.90;0.90;;;;;;;9.39;56.50;98398.50;5094325;28;20063;-79
2021/05/05 12:49:42;;;;;;;2.63;0.77;;;;;;;9.01;54.05;98392.53;5094066;28;20074;-81
2021/05/05 12:52:24;;;;;;;5.55;1.05;;;;;;;8.85;57.22;98415.28;5102589;28;20094;-81
2021/05/05 12:54:52;;;;;;;0.70;0.60;;;;;;;8.69;53.46;98432.63;5098720;28;20048;-80
2021/05/05 12:57:32;;;;;;;1.45;0.80;;;;;;;8.70;54.18;98419.91;5095980;28;20066;-81
2021/05/05 12:59:59;;;;;;;4.55;1.10;;;;;;;8.78;55.82;98411.69;5097709;28;20286;-80
2021/05/05 13:02:29;;;;;;;1.48;0.77;;;;;;;9.12;53.30;98402.00;5094797;28;20445;-80
2021/05/05 13:05:21;;;;;;;3.38;0.70;;;;;;;9.71;51.65;98406.22;5110717;28;20086;-81
2021/05/05 13:07:47;;;;;;;2.97;0.80;;;;;;;10.25;47.83;98386.53;5109637;28;20036;-81
2021/05/05 13:10:51;;;;;;;11.02;1.23;;;;;;;10.44;48.25;98389.56;5100600;28;20050;-83
2021/05/05 13:13:39;;;;;;;1.60;0.73;;;;;;;10.90;50.14;98407.91;5107997;28;20043;-81
2021/05/05 13:16:18;;;;;;;0.95;0.50;;;;;;;10.68;50.24;98407.19;5062284;27;20051;-81
2021/05/05 13:30:43;;;;;;;3.08;0.80;;;;;;;10.48;55.61;98415.28;5032350;28;20041;-81
2021/05/05 13:33:10;;;;;;;4.43;1.10;;;;;;;10.72;57.41;98424.78;5089493;28;20071;-81
2021/05/05 13:35:57;;;;;;;3.30;0.90;;;;;;;10.90;55.74;98421.50;5102018;28;20043;-81
2021/05/05 13:38:36;;;;;;;2.60;0.98;;;;;;;10.45;55.28;98434.72;5103725;28;20591;-80
2021/05/05 13:41:15;;;;;;;0.85;0.60;;;;;;;10.36;57.18;98442.19;5102692;28;20465;-80
2021/05/05 13:43:57;;;;;;;3.38;0.75;;;;;;;10.06;58.60;98442.41;5106507;28;20606;-81
2021/05/05 13:46:35;;;;;;;3.63;1.10;;;;;;;9.93;60.87;98453.19;5104054;28;20062;-81
2021/05/05 13:49:33;;;;;;;2.50;1.10;;;;;;;9.48;59.72;98453.44;5113324;27;20146;-81
2021/05/05 13:52:03;;;;;;;4.65;1.73;;;;;;;9.26;58.33;98441.78;5098060;28;20185;-80
2021/05/05 13:54:29;;;;;;;6.68;1.58;;;;;;;9.23;58.94;98463.00;5101465;27;20044;-81
2021/05/05 13:57:10;;;;;;;1.20;0.90;;;;;;;9.11;55.11;98481.66;5104393;28;20121;-81
2021/05/05 14:00:06;;;;;;;1.83;0.73;;;;;;;8.78;56.44;98472.13;5104934;28;20044;-80
2021/05/05 14:02:39;;;;;;;1.90;0.80;;;;;;;8.51;56.86;98449.31;5107826;28;20148;-81
2021/05/05 14:05:06;;;;;;;1.70;0.90;;;;;;;8.70;56.99;98472.22;5100369;28;20086;-81
2021/05/05 14:07:35;;;;;;;2.00;1.08;;;;;;;8.79;56.35;98489.22;5111768;28;20101;-80
2021/05/05 14:10:02;;;;;;;1.38;0.60;;;;;;;8.54;55.21;98475.19;5109240;28;20051;-81
2021/05/05 14:12:29;;;;;;;1.35;0.88;;;;;;;8.73;56.12;98490.84;5091481;28;20043;-80
2021/05/05 14:14:55;;;;;;;0.60;0.60;;;;;;;8.92;57.52;98483.97;5108304;28;20554;-80
2021/05/05 14:17:21;;;;;;;1.90;0.65;;;;;;;9.35;54.96;98470.47;5093088;28;20391;-80
2021/05/05 14:19:48;;;;;;;4.32;0.90;;;;;;;10.19;55.81;98470.69;5092020;28;20048;-80
2021/05/05 14:22:14;;;;;;;3.10;0.80;;;;;;;10.49;55.77;98454.16;5100433;28;20048;-81
2021/05/05 14:24:50;;;;;;;1.88;0.95;;;;;;;10.35;53.90;98447.81;5109160;28;20046;-80
2021/05/05 14:27:17;;;;;;;1.38;0.98;;;;;;;10.70;53.63;98450.50;5110054;28;20059;-81
2021/05/05 14:29:44;;;;;;;3.15;0.90;;;;;;;10.55;53.32;98445.19;5091990;28;20048;-81
2021/05/05 14:32:10;;;;;;;2.65;1.02;;;;;;;10.62;54.08;98457.78;5109917;28;20052;-80
2021/05/05 14:34:36;;;;;;;2.97;0.82;;;;;;;10.85;54.27;98437.56;5111341;28;20509;-80
2021/05/05 14:37:02;;;;;;;2.53;0.75;;;;;;;11.20;53.73;98456.50;5100110;28;20052;-79
2021/05/05 14:39:29;;;;;;;2.97;1.02;;;;;;;11.20;53.66;98461.09;5093901;28;20484;-78
2021/05/05 14:41:56;;;;;;;2.22;1.10;;;;;;;11.74;53.59;98453.81;5101872;28;20388;-78
2021/05/05 14:44:30;;;;;;;3.00;1.10;;;;;;;11.52;52.58;98462.19;5113566;28;20059;-79
2021/05/05 14:49:41;;;;;;;2.20;0.75;;;;;;;11.19;52.57;98441.22;5093285;28;20054;-79
2021/05/05 14:52:07;;;;;;;4.28;0.90;;;;;;;11.53;52.61;98447.53;5099677;28;20043;-79
2021/05/05 14:54:36;;;;;;;2.67;1.42;;;;;;;11.59;53.08;98435.81;5099111;28;20417;-80
2021/05/05 14:57:18;;;;;;;2.00;0.95;;;;;;;11.96;51.18;98449.03;5102355;28;20055;-80
2021/05/05 14:59:44;;;;;;;4.28;1.00;;;;;;;11.77;48.14;98447.94;5109219;28;20048;-80
2021/05/05 15:02:11;;;;;;;2.65;1.40;;;;;;;11.86;49.99;98454.84;5105904;28;20047;-81
2021/05/05 15:04:37;;;;;;;3.55;1.10;;;;;;;11.20;49.85;98442.03;5108664;28;20051;-80
2021/05/05 15:07:04;;;;;;;5.22;1.40;;;;;;;10.86;50.12;98444.69;5093492;28;20046;-80
2021/05/05 15:09:46;;;;;;;3.60;1.88;;;;;;;10.88;52.93;98458.91;5094467;28;20047;-80
2021/05/05 15:29:05;;;;;;;2.25;1.05;;;;;;;11.38;46.33;98457.78;5090901;28;20125;-81
2021/05/05 15:34:38;;;;;;;4.82;1.42;;;;;;;11.67;43.74;98454.66;5090131;28;20128;-81
2021/05/05 15:37:11;;;;;;;2.92;0.90;;;;;;;11.67;44.93;98453.81;5100209;28;20074;-81
2021/05/05 15:39:43;;;;;;;2.83;0.68;;;;;;;11.41;43.27;98465.53;5092254;28;20051;-81
2021/05/05 15:42:10;;;;;;;1.30;0.70;;;;;;;11.02;43.96;98459.81;5093165;28;20059;-81
2021/05/05 15:44:45;;;;;;;3.75;1.45;;;;;;;11.06;45.79;98450.19;5092318;28;20407;-81
2021/05/05 15:49:56;;;;;;;2.58;1.25;;;;;;;10.62;45.77;98470.53;5106815;28;20131;-81
2021/05/05 15:52:26;;;;;;;2.17;1.10;;;;;;;10.50;45.94;98480.31;5111081;28;20490;-81
2021/05/05 15:54:53;;;;;;;;;;;;;;;10.56;46.71;98484.94;5112683;28;20313;-80
2021/05/05 15:57:20;;;;;;;6.97;1.08;;;;;;;10.42;46.08;98476.72;5104089;28;19924;-81
2021/05/05 15:59:56;;;;;;;1.48;0.80;;;;;;;10.32;46.47;98491.66;5091155;28;20597;-81
2021/05/05 16:14:06;;;;;;;3.05;1.20;;;;;;;9.95;49.08;98491.84;5045921;28;20099;-81
2021/05/05 16:16:45;;;;;;;4.38;1.13;;;;;;;9.57;56.30;98531.00;5046029;28;20053;-81
2021/05/05 16:19:11;;;;;;;1.63;0.60;;;;;;;8.58;60.17;98555.91;5046488;28;20084;-82
2021/05/05 16:21:43;;;;;;;2.88;0.98;;;;;;;7.95;63.74;98577.81;5053578;28;20131;-81
2021/05/05 16:27:10;;;;;;;2.60;1.08;;;;;;;7.66;68.06;98578.53;5051501;28;20138;-80
2021/05/05 16:29:48;;;;;;;1.17;0.93;;;;;;;7.91;66.29;98567.53;5040709;28;20068;-82
2021/05/05 16:48:53;;;;;;;0.90;0.90;;;;;;;9.22;60.28;98535.41;5053812;28;20130;-80
2021/05/05 16:54:12;;;;;;;1.52;0.90;;;;;;;9.38;59.62;98537.88;5052987;28;20056;-81
2021/05/05 16:56:46;;;;;;;4.03;0.80;;;;;;;8.99;59.71;98530.16;5035387;28;20143;-81
2021/05/05 16:59:37;;;;;;;1.27;1.08;;;;;;;8.69;57.60;98546.44;5038330;28;20473;-81
2021/05/05 17:07:47;;;;;;;5.03;1.25;;;;;;;8.58;57.11;98534.22;5063666;28;20048;-81
2021/05/05 17:10:17;;;;;;;1.42;1.00;;;;;;;8.67;55.13;98551.19;5066363;28;20052;-81
2021/05/05 17:12:44;;;;;;;3.47;0.98;;;;;;;8.61;56.28;98554.66;5071595;28;20268;-81
2021/05/05 17:15:15;;;;;;;1.33;1.02;;;;;;;8.53;56.30;98555.59;5071700;28;20049;-80
2021/05/05 17:17:48;;;;;;;;;;;;;;;8.62;56.08;98553.66;5073351;28;20204;-80
2021/05/05 17:20:21;;;;;;;2.08;1.10;;;;;;;8.64;56.60;98554.28;5072243;28;19920;-80
2021/05/05 17:22:51;;;;;;;2.95;1.10;;;;;;;8.57;55.93;98554.22;5073680;28;20105;-81
2021/05/05 17:25:21;;;;;;;1.45;0.90;;;;;;;8.36;56.50;98537.84;5070864;28;20078;-84
2021/05/05 17:27:52;;;;;;;1.50;0.80;;;;;;;8.30;56.09;98551.06;5073550;28;20049;-80
2021/05/05 17:30:37;;;;;;;2.08;0.90;;;;;;;8.22;56.18;98561.13;5067019;28;20075;-81
2021/05/05 17:47:31;;;;;;;1.17;1.08;;;;;;;7.92;57.74;98571.94;5072847;28;20059;-81
2021/05/05 17:57:50;;;;;;;2.92;1.02;;;;;;;7.86;58.43;98568.09;5057879;28;20102;-81
2021/05/05 18:12:44;;;;;;;3.35;1.17;;;;;;;7.59;60.20;98600.06;5072861;28;20067;-81
2021/05/05 18:15:18;;;;;;;4.35;1.40;;;;;;;7.52;60.67;98598.25;5071063;28;20053;-81
2021/05/05 18:17:48;;;;;;;2.45;1.10;;;;;;;7.59;60.18;98604.66;5072003;28;20162;-82
2021/05/05 18:20:18;;;;;;;;;;;;;;;7.57;61.03;98614.78;5071355;28;20041;-81
2021/05/05 18:22:52;;;;;;;;;;;;;;;7.53;61.43;98613.47;5072982;28;19925;-81
2021/05/05 18:25:36;;;;;;;3.28;1.13;;;;;;;7.52;61.09;98615.31;5070624;28;20001;-81
2021/05/05 18:28:08;;;;;;;5.00;1.40;;;;;;;7.41;61.39;98624.69;5071411;28;20221;-82
2021/05/05 18:30:35;;;;;;;2.42;1.20;;;;;;;7.26;61.35;98618.38;5071541;28;20064;-81
2021/05/05 18:33:02;;;;;;;3.17;1.40;;;;;;;7.22;61.31;98619.72;5072096;28;20520;-81
2021/05/05 18:35:28;;;;;;;2.58;1.10;;;;;;;7.17;62.15;98620.25;5071008;28;20044;-81
2021/05/05 18:37:58;;;;;;;2.83;1.20;;;;;;;7.21;61.85;98634.25;5069599;28;20052;-80
2021/05/05 18:40:31;;;;;;;;;;;;;;;7.16;62.24;98645.59;5071766;28;20048;-81
2021/05/05 18:43:02;;;;;;;8.77;1.60;;;;;;;7.16;62.26;98639.34;5071452;28;19920;-81
2021/05/05 19:07:35;;;;;;;5.72;2.03;;;;;;;6.98;60.26;98655.81;5071081;28;20048;-81
2021/05/05 19:21:53;;;;;;;2.00;0.90;;;;;;;6.81;61.83;98657.72;5061265;28;20102;-82
2021/05/05 20:42:45;;;;;;;3.13;1.52;;;;;;;5.95;65.49;98685.09;5070487;28;20526;-81
2021/05/05 21:07:38;;;;;;;2.08;1.08;;;;;;;5.62;67.61;98703.09;5072161;28;20058;-80
2021/05/05 21:10:22;;;;;;;1.13;0.90;;;;;;;5.54;67.78;98698.53;5074019;28;20044;-80
2021/05/05 22:57:45;;;;;;;3.10;1.23;;;;;;;5.78;67.70;98686.94;5067009;28;20044;-81
2021/05/05 23:09:03;;;;;;;2.13;1.27;;;;;;;5.77;69.31;98696.03;5035070;28;20041;-82
2021/05/05 23:11:56;;;;;;;3.05;1.15;;;;;;;5.82;69.64;98699.06;5057923;28;20052;-81
2021/05/05 23:22:38;;;;;;;2.70;1.30;;;;;;;5.76;72.98;98691.63;5033590;28;20136;-81
2021/05/05 23:25:13;;;;;;;5.00;1.30;;;;;;;5.70;73.18;98692.31;5070794;28;20052;-81
2021/05/05 23:27:51;;;;;;;2.25;1.58;;;;;;;5.52;73.90;98670.84;5070233;28;20122;-81
2021/05/05 23:30:42;;;;;;;2.80;1.30;;;;;;;5.50;73.97;98683.66;5070222;28;20048;-81
